D55

Robertson Field Airport

Langdon, North Dakota, USA
METAR KD55 210515Z AUTO 00000KT 9SM CLR 13/07 A3020 RMK AO2
Observed Flight Rules
Aug-21 @ 05:15 UTC (12 hours ago) Visual Flight Rules
Visibility Clouds
9 miles
  • Clear skies
Temperatures Readings
Current 13°C / 55°F
Dewpoint 7°C / 45°F
Humidity 67%
Altimeter 30.2" Hg
Pressure 1023 hPa
Elevation 491
METAR KD55 210515Z AUTO 00000KT 9SM CLR 13/07 A3020 RMK AO2
Observed Flight Rules
Aug-21 @ 05:15 UTC
(12 hours ago)
VFR
Clouds
  • Clear skies
Temperature Dewpoint
13°C / 55°F 7°C / 45°F
Humidity Altimeter Pressure
67% 30.2" Hg 1023 hPa